Beauregard Regional Airport
KDRI : now visible

Airfield :











YOU CAN JOIN US ON...

 
LOGIN :

Register | Disclaimer

   EN    FR    IT 

 









Legend :    VFR   Marginal VFR   IFR   Intensive IFR   Very Intensive IFR
Visi :
Ceiling :
>= 8 km
>= 3000ft
5 to 8 km
1000 to 3000 ft
1500m to 5 km
500 to 1000 ft
800 to 1500m
200 to 500 ft
< 800m
< 200 ft
Symbols :   Thunderstorms  Fog  Heavy snow  Heavy precipitations  Wind > 20 kt






- Airport Elevation : 202 ft


KDRI - Beauregard Regional

CURRENT METAR :
  • 270035Z AUTO 00000KT 10SM BKN003 OVC017 12/11 A3000 RMK AO2 T01200113

EXPIRED METARs :
  • 270015Z AUTO 00000KT 10SM SCT003 BKN011 OVC017 12/11 A3000 RMK AO2 T01200113
  • 262355Z AUTO 00000KT 5SM BR BKN003 OVC009 12/11 A3000 RMK AO2 T01200113 10125 20120
  • 262335Z AUTO 00000KT 2 1/2SM BR OVC003 12/11 A3000 RMK AO2 T01200113
  • 262315Z AUTO 00000KT 3SM BR OVC003 12/11 A3000 RMK AO2 T01210113
  • 262255Z AUTO 00000KT 3SM BR OVC003 12/12 A2999 RMK AO2 T01210115
  • 262235Z AUTO 00000KT 2 1/2SM BR OVC003 12/12 A2998 RMK AO2 T01220115
  • 262215Z AUTO 00000KT 3SM BR OVC003 12/12 A2998 RMK AO2 T01220115
  • 262155Z AUTO 00000KT 3SM BR OVC003 12/12 A2998 RMK AO2 T01230116

TAF N/A



MET'MAP, your aeronautical weather chart ! - Copyright ORBIFLY December 2007 - Disclaimer

ORBIFLY MET'MAP TEAM :

Programming & Development : Alexandra Zaïnal
Concept & original design : Baudouin d'Aumeries
Assistance for programming : Marc-Olivier Méhu
Technical & hardware support : Manuel Goepfert

Contact : metmap@orbifly.com




SOURCES & CREDITS :

   NOAA       Earth
Advisory